sensor_id;sensor_type;location;lat;lon;timestamp;pressure;altitude;pressure_sealevel;temperature;humidity
8140;BME280;4111;50.972;7.072;2024-02-26T00:00:25;99335.06;;;9.02;69.36
8140;BME280;4111;50.972;7.072;2024-02-26T00:02:52;99327.75;;;9.07;69.75
8140;BME280;4111;50.972;7.072;2024-02-26T00:05:18;99338.56;;;9.07;69.66
8140;BME280;4111;50.972;7.072;2024-02-26T00:07:45;99344.00;;;9.07;70.11
8140;BME280;4111;50.972;7.072;2024-02-26T00:10:11;99334.53;;;9.05;70.21
8140;BME280;4111;50.972;7.072;2024-02-26T00:12:38;99325.31;;;9.06;70.46
8140;BME280;4111;50.972;7.072;2024-02-26T00:15:08;99319.38;;;8.99;71.39
8140;BME280;4111;50.972;7.072;2024-02-26T00:17:35;99333.16;;;9.02;72.17
8140;BME280;4111;50.972;7.072;2024-02-26T00:20:02;99316.38;;;9.00;72.48
8140;BME280;4111;50.972;7.072;2024-02-26T00:22:31;99322.06;;;8.88;72.80
8140;BME280;4111;50.972;7.072;2024-02-26T00:24:57;99315.00;;;8.82;73.07
8140;BME280;4111;50.972;7.072;2024-02-26T00:27:24;99317.19;;;8.80;73.81
8140;BME280;4111;50.972;7.072;2024-02-26T00:29:50;99317.19;;;8.80;73.86
8140;BME280;4111;50.972;7.072;2024-02-26T00:32:17;99316.94;;;8.87;73.18
8140;BME280;4111;50.972;7.072;2024-02-26T00:34:43;99317.19;;;8.90;73.70
8140;BME280;4111;50.972;7.072;2024-02-26T00:37:10;99310.16;;;8.89;73.97
8140;BME280;4111;50.972;7.072;2024-02-26T00:39:36;99305.81;;;8.83;74.48
8140;BME280;4111;50.972;7.072;2024-02-26T00:42:03;99308.53;;;8.78;74.69
8140;BME280;4111;50.972;7.072;2024-02-26T00:44:30;99296.63;;;8.64;75.06
8140;BME280;4111;50.972;7.072;2024-02-26T00:46:56;99291.72;;;8.61;75.41
8140;BME280;4111;50.972;7.072;2024-02-26T00:49:23;99292.81;;;8.54;75.55
8140;BME280;4111;50.972;7.072;2024-02-26T00:51:50;99284.69;;;8.49;76.28
8140;BME280;4111;50.972;7.072;2024-02-26T00:54:16;99284.16;;;8.47;76.16
8140;BME280;4111;50.972;7.072;2024-02-26T00:56:42;99280.38;;;8.43;76.77
8140;BME280;4111;50.972;7.072;2024-02-26T00:59:09;99288.47;;;8.43;76.92
8140;BME280;4111;50.972;7.072;2024-02-26T01:01:36;99289.56;;;8.52;76.66
8140;BME280;4111;50.972;7.072;2024-02-26T01:04:02;99294.97;;;8.52;77.20
8140;BME280;4111;50.972;7.072;2024-02-26T01:06:29;99296.59;;;8.53;77.29
8140;BME280;4111;50.972;7.072;2024-02-26T01:08:56;99302.03;;;8.64;76.91
8140;BME280;4111;50.972;7.072;2024-02-26T01:11:23;99309.59;;;8.62;77.10
8140;BME280;4111;50.972;7.072;2024-02-26T01:13:49;99299.31;;;8.59;77.41
8140;BME280;4111;50.972;7.072;2024-02-26T01:16:19;99293.34;;;8.46;77.66
8140;BME280;4111;50.972;7.072;2024-02-26T01:18:46;99288.19;;;8.45;78.02
8140;BME280;4111;50.972;7.072;2024-02-26T01:21:12;99294.63;;;8.39;78.06
8140;BME280;4111;50.972;7.072;2024-02-26T01:23:39;99286.25;;;8.40;78.01
8140;BME280;4111;50.972;7.072;2024-02-26T01:26:05;99288.16;;;8.40;78.89
8140;BME280;4111;50.972;7.072;2024-02-26T01:28:32;99290.03;;;8.34;78.77
8140;BME280;4111;50.972;7.072;2024-02-26T01:30:58;99289.50;;;8.32;79.28
8140;BME280;4111;50.972;7.072;2024-02-26T01:33:26;99288.38;;;8.23;79.74
8140;BME280;4111;50.972;7.072;2024-02-26T01:35:52;99288.94;;;8.20;79.98
8140;BME280;4111;50.972;7.072;2024-02-26T01:38:19;99281.09;;;8.18;80.41
8140;BME280;4111;50.972;7.072;2024-02-26T01:40:46;99277.31;;;8.24;80.88
8140;BME280;4111;50.972;7.072;2024-02-26T01:43:12;99282.44;;;8.21;81.13
8140;BME280;4111;50.972;7.072;2024-02-26T01:45:39;99277.28;;;8.14;81.86
8140;BME280;4111;50.972;7.072;2024-02-26T01:48:06;99272.38;;;8.01;82.05
8140;BME280;4111;50.972;7.072;2024-02-26T01:50:34;99280.78;;;8.09;82.96
8140;BME280;4111;50.972;7.072;2024-02-26T01:53:01;99273.47;;;8.05;83.20
8140;BME280;4111;50.972;7.072;2024-02-26T01:55:27;99267.50;;;7.98;84.16
8140;BME280;4111;50.972;7.072;2024-02-26T01:57:54;99277.50;;;7.92;84.94
8140;BME280;4111;50.972;7.072;2024-02-26T02:00:21;99271.56;;;8.00;85.07
8140;BME280;4111;50.972;7.072;2024-02-26T02:02:49;99272.09;;;7.92;85.64
8140;BME280;4111;50.972;7.072;2024-02-26T02:05:17;99272.06;;;7.87;85.96
8140;BME280;4111;50.972;7.072;2024-02-26T02:07:44;99258.53;;;7.82;86.40
8140;BME280;4111;50.972;7.072;2024-02-26T02:10:11;99280.16;;;7.87;86.52
8140;BME280;4111;50.972;7.072;2024-02-26T02:12:37;99277.50;;;7.92;86.62
8140;BME280;4111;50.972;7.072;2024-02-26T02:15:07;99265.53;;;7.78;87.41
8140;BME280;4111;50.972;7.072;2024-02-26T02:17:34;99270.38;;;7.75;88.01
8140;BME280;4111;50.972;7.072;2024-02-26T02:20:00;99273.13;;;7.81;88.24
8140;BME280;4111;50.972;7.072;2024-02-26T02:22:28;99267.94;;;7.74;88.83
8140;BME280;4111;50.972;7.072;2024-02-26T02:24:54;99263.88;;;7.71;89.24
8140;BME280;4111;50.972;7.072;2024-02-26T02:27:21;99269.28;;;7.71;89.64
8140;BME280;4111;50.972;7.072;2024-02-26T02:29:48;99269.84;;;7.68;89.96
8140;BME280;4111;50.972;7.072;2024-02-26T02:32:16;99266.59;;;7.66;90.40
8140;BME280;4111;50.972;7.072;2024-02-26T02:34:43;99267.63;;;7.60;90.45
8140;BME280;4111;50.972;7.072;2024-02-26T02:37:10;99273.59;;;7.67;91.05
8140;BME280;4111;50.972;7.072;2024-02-26T02:39:37;99264.97;;;7.75;91.22
8140;BME280;4111;50.972;7.072;2024-02-26T02:42:03;99260.13;;;7.72;90.99
8140;BME280;4111;50.972;7.072;2024-02-26T02:44:30;99263.38;;;7.74;91.36
8140;BME280;4111;50.972;7.072;2024-02-26T02:46:57;99270.66;;;7.69;91.24
8140;BME280;4111;50.972;7.072;2024-02-26T02:49:23;99264.97;;;7.70;91.38
8140;BME280;4111;50.972;7.072;2024-02-26T02:51:50;99261.19;;;7.66;91.73
8140;BME280;4111;50.972;7.072;2024-02-26T02:54:17;99262.22;;;7.60;92.14
8140;BME280;4111;50.972;7.072;2024-02-26T02:56:43;99262.75;;;7.57;92.55
8140;BME280;4111;50.972;7.072;2024-02-26T02:59:10;99254.69;;;7.62;93.04
8140;BME280;4111;50.972;7.072;2024-02-26T03:01:36;99264.44;;;7.68;92.85
8140;BME280;4111;50.972;7.072;2024-02-26T03:04:03;99252.53;;;7.64;92.67
8140;BME280;4111;50.972;7.072;2024-02-26T03:06:30;99252.00;;;7.62;92.90
8140;BME280;4111;50.972;7.072;2024-02-26T03:08:56;99259.50;;;7.60;93.08
8140;BME280;4111;50.972;7.072;2024-02-26T03:11:23;99256.00;;;7.54;93.59
8140;BME280;4111;50.972;7.072;2024-02-26T03:13:49;99254.06;;;7.50;93.80
8140;BME280;4111;50.972;7.072;2024-02-26T03:16:17;99260.25;;;7.45;94.49
8140;BME280;4111;50.972;7.072;2024-02-26T03:18:44;99258.66;;;7.49;94.84
8140;BME280;4111;50.972;7.072;2024-02-26T03:21:10;99259.47;;;7.45;94.97
8140;BME280;4111;50.972;7.072;2024-02-26T03:23:37;99251.38;;;7.50;95.47
8140;BME280;4111;50.972;7.072;2024-02-26T03:26:04;99258.13;;;7.47;95.56
8140;BME280;4111;50.972;7.072;2024-02-26T03:28:31;99250.28;;;7.46;96.00
8140;BME280;4111;50.972;7.072;2024-02-26T03:31:00;99258.13;;;7.47;96.48
8140;BME280;4111;50.972;7.072;2024-02-26T03:33:27;99248.13;;;7.48;96.42
8140;BME280;4111;50.972;7.072;2024-02-26T03:35:54;99251.38;;;7.50;96.71
8140;BME280;4111;50.972;7.072;2024-02-26T03:38:21;99257.84;;;7.49;97.15
8140;BME280;4111;50.972;7.072;2024-02-26T03:40:47;99260.84;;;7.58;97.05
8140;BME280;4111;50.972;7.072;2024-02-26T03:43:14;99260.84;;;7.52;97.19
8140;BME280;4111;50.972;7.072;2024-02-26T03:45:40;99254.09;;;7.55;97.57
8140;BME280;4111;50.972;7.072;2024-02-26T03:48:07;99251.69;;;7.64;97.59
8140;BME280;4111;50.972;7.072;2024-02-26T03:50:33;99247.38;;;7.68;97.42
8140;BME280;4111;50.972;7.072;2024-02-26T03:53:01;99258.44;;;7.61;97.36
8140;BME280;4111;50.972;7.072;2024-02-26T03:55:27;99250.59;;;7.54;97.93
8140;BME280;4111;50.972;7.072;2024-02-26T03:57:54;99252.00;;;7.67;97.86
8140;BME280;4111;50.972;7.072;2024-02-26T04:00:20;99246.06;;;7.70;98.26
8140;BME280;4111;50.972;7.072;2024-02-26T04:02:49;99258.44;;;7.61;98.44
8140;BME280;4111;50.972;7.072;2024-02-26T04:05:16;99270.59;;;7.64;98.70
8140;BME280;4111;50.972;7.072;2024-02-26T04:07:42;99265.22;;;7.64;98.52
8140;BME280;4111;50.972;7.072;2024-02-26T04:10:10;99263.84;;;7.61;98.85
8140;BME280;4111;50.972;7.072;2024-02-26T04:12:40;99266.00;;;7.59;99.03
8140;BME280;4111;50.972;7.072;2024-02-26T04:15:08;99269.75;;;7.58;99.07
8140;BME280;4111;50.972;7.072;2024-02-26T04:17:36;99272.47;;;7.53;99.33
8140;BME280;4111;50.972;7.072;2024-02-26T04:20:04;99279.00;;;7.67;100.00
8140;BME280;4111;50.972;7.072;2024-02-26T04:22:33;99286.03;;;7.68;99.96
8140;BME280;4111;50.972;7.072;2024-02-26T04:25:00;99292.00;;;7.70;100.00
8140;BME280;4111;50.972;7.072;2024-02-26T04:27:26;99299.81;;;7.72;100.00
8140;BME280;4111;50.972;7.072;2024-02-26T04:29:53;99296.84;;;7.73;100.00
8140;BME280;4111;50.972;7.072;2024-02-26T04:32:19;99302.84;;;7.81;100.00
8140;BME280;4111;50.972;7.072;2024-02-26T04:34:47;99298.78;;;7.78;100.00
8140;BME280;4111;50.972;7.072;2024-02-26T04:37:13;99310.41;;;7.79;100.00
8140;BME280;4111;50.972;7.072;2024-02-26T04:39:40;99311.47;;;7.72;100.00
8140;BME280;4111;50.972;7.072;2024-02-26T04:42:06;99313.88;;;7.69;100.00
8140;BME280;4111;50.972;7.072;2024-02-26T04:44:33;99313.56;;;7.65;100.00
8140;BME280;4111;50.972;7.072;2024-02-26T04:46:59;99313.81;;;7.64;100.00
8140;BME280;4111;50.972;7.072;2024-02-26T04:49:28;99317.84;;;7.56;100.00
8140;BME280;4111;50.972;7.072;2024-02-26T04:51:55;99319.69;;;7.45;100.00
8140;BME280;4111;50.972;7.072;2024-02-26T04:54:21;99315.97;;;7.57;100.00
8140;BME280;4111;50.972;7.072;2024-02-26T04:56:48;99317.88;;;7.61;100.00
8140;BME280;4111;50.972;7.072;2024-02-26T04:59:14;99321.31;;;7.51;100.00
8140;BME280;4111;50.972;7.072;2024-02-26T05:01:41;99323.72;;;7.43;100.00
8140;BME280;4111;50.972;7.072;2024-02-26T05:04:08;99322.06;;;7.37;100.00
8140;BME280;4111;50.972;7.072;2024-02-26T05:06:36;99315.03;;;7.35;100.00
8140;BME280;4111;50.972;7.072;2024-02-26T05:09:03;99311.47;;;7.30;100.00
8140;BME280;4111;50.972;7.072;2024-02-26T05:11:30;99313.31;;;7.24;100.00
8140;BME280;4111;50.972;7.072;2024-02-26T05:13:57;99311.72;;;7.28;100.00
8140;BME280;4111;50.972;7.072;2024-02-26T05:16:23;99314.16;;;7.30;100.00
8140;BME280;4111;50.972;7.072;2024-02-26T05:18:51;99316.56;;;7.26;100.00
8140;BME280;4111;50.972;7.072;2024-02-26T05:21:17;99309.56;;;7.25;100.00
8140;BME280;4111;50.972;7.072;2024-02-26T05:23:44;99307.91;;;7.24;100.00
8140;BME280;4111;50.972;7.072;2024-02-26T05:26:11;99311.72;;;7.23;100.00
8140;BME280;4111;50.972;7.072;2024-02-26T05:28:38;99318.22;;;7.32;100.00
8140;BME280;4111;50.972;7.072;2024-02-26T05:31:05;99312.31;;;7.35;100.00
8140;BME280;4111;50.972;7.072;2024-02-26T05:33:32;99319.06;;;7.38;100.00
8140;BME280;4111;50.972;7.072;2024-02-26T05:35:59;99323.13;;;7.35;100.00
8140;BME280;4111;50.972;7.072;2024-02-26T05:38:30;99320.66;;;7.29;100.00
8140;BME280;4111;50.972;7.072;2024-02-26T05:40:58;99330.72;;;7.39;100.00
8140;BME280;4111;50.972;7.072;2024-02-26T05:43:26;99328.78;;;7.34;100.00
8140;BME280;4111;50.972;7.072;2024-02-26T05:45:52;99328.47;;;7.30;100.00
8140;BME280;4111;50.972;7.072;2024-02-26T05:48:19;99337.47;;;7.41;100.00
8140;BME280;4111;50.972;7.072;2024-02-26T05:50:46;99341.03;;;7.47;100.00
8140;BME280;4111;50.972;7.072;2024-02-26T05:53:13;99342.69;;;7.53;100.00
8140;BME280;4111;50.972;7.072;2024-02-26T05:55:39;99346.97;;;7.49;100.00
8140;BME280;4111;50.972;7.072;2024-02-26T05:58:06;99344.22;;;7.44;100.00
8140;BME280;4111;50.972;7.072;2024-02-26T06:00:32;99340.97;;;7.42;100.00
8140;BME280;4111;50.972;7.072;2024-02-26T06:02:59;99352.22;;;7.28;100.00
8140;BME280;4111;50.972;7.072;2024-02-26T06:05:25;99352.81;;;7.35;100.00
8140;BME280;4111;50.972;7.072;2024-02-26T06:07:52;99346.56;;;7.25;100.00
8140;BME280;4111;50.972;7.072;2024-02-26T06:10:20;99350.00;;;7.20;100.00
8140;BME280;4111;50.972;7.072;2024-02-26T06:12:47;99352.69;;;7.15;100.00
8140;BME280;4111;50.972;7.072;2024-02-26T06:15:14;99349.16;;;7.14;100.00
8140;BME280;4111;50.972;7.072;2024-02-26T06:17:40;99347.78;;;7.12;100.00
8140;BME280;4111;50.972;7.072;2024-02-26T06:20:08;99351.56;;;7.11;100.00
8140;BME280;4111;50.972;7.072;2024-02-26T06:22:41;99363.94;;;7.07;100.00
8140;BME280;4111;50.972;7.072;2024-02-26T06:25:09;99363.66;;;7.08;100.00
8140;BME280;4111;50.972;7.072;2024-02-26T06:27:35;99363.41;;;7.10;100.00
8140;BME280;4111;50.972;7.072;2024-02-26T06:30:02;99361.78;;;7.09;100.00
8140;BME280;4111;50.972;7.072;2024-02-26T06:32:29;99363.41;;;7.10;100.00
8140;BME280;4111;50.972;7.072;2024-02-26T06:34:56;99363.97;;;7.12;100.00
8140;BME280;4111;50.972;7.072;2024-02-26T06:37:23;99378.03;;;7.14;100.00
8140;BME280;4111;50.972;7.072;2024-02-26T06:39:49;99381.38;;;7.26;100.00
8140;BME280;4111;50.972;7.072;2024-02-26T06:42:18;99382.94;;;7.22;100.00
8140;BME280;4111;50.972;7.072;2024-02-26T06:44:45;99384.75;;;7.11;100.00
8140;BME280;4111;50.972;7.072;2024-02-26T06:47:11;99389.84;;;7.08;100.00
8140;BME280;4111;50.972;7.072;2024-02-26T06:49:38;99384.47;;;7.08;100.00
8140;BME280;4111;50.972;7.072;2024-02-26T06:52:05;99395.16;;;6.98;100.00
8140;BME280;4111;50.972;7.072;2024-02-26T06:54:32;99399.63;;;7.14;100.00
8140;BME280;4111;50.972;7.072;2024-02-26T06:56:59;99404.22;;;7.13;100.00
8140;BME280;4111;50.972;7.072;2024-02-26T06:59:26;99398.19;;;7.06;100.00
8140;BME280;4111;50.972;7.072;2024-02-26T07:01:53;99397.09;;;7.02;100.00
8140;BME280;4111;50.972;7.072;2024-02-26T07:04:21;99402.00;;;7.05;100.00
8140;BME280;4111;50.972;7.072;2024-02-26T07:06:48;99402.00;;;7.05;100.00
8140;BME280;4111;50.972;7.072;2024-02-26T07:09:14;99409.78;;;7.02;100.00
8140;BME280;4111;50.972;7.072;2024-02-26T07:11:42;99399.75;;;6.97;100.00
8140;BME280;4111;50.972;7.072;2024-02-26T07:14:09;99406.28;;;7.01;100.00
8140;BME280;4111;50.972;7.072;2024-02-26T07:16:36;99406.22;;;6.96;100.00
8140;BME280;4111;50.972;7.072;2024-02-26T07:19:03;99408.09;;;6.95;100.00
8140;BME280;4111;50.972;7.072;2024-02-26T07:21:30;99407.88;;;7.02;100.00
8140;BME280;4111;50.972;7.072;2024-02-26T07:23:57;99414.91;;;7.03;100.00
8140;BME280;4111;50.972;7.072;2024-02-26T07:26:24;99408.09;;;6.95;100.00
8140;BME280;4111;50.972;7.072;2024-02-26T07:28:52;99414.88;;;6.98;100.00
8140;BME280;4111;50.972;7.072;2024-02-26T07:31:18;99427.03;;;7.01;100.00
8140;BME280;4111;50.972;7.072;2024-02-26T07:33:45;99426.53;;;7.04;100.00
8140;BME280;4111;50.972;7.072;2024-02-26T07:36:12;99422.03;;;7.14;100.00
8140;BME280;4111;50.972;7.072;2024-02-26T07:38:39;99424.47;;;7.16;100.00
8140;BME280;4111;50.972;7.072;2024-02-26T07:41:09;99421.75;;;7.11;100.00
8140;BME280;4111;50.972;7.072;2024-02-26T07:43:36;99430.97;;;7.20;100.00
8140;BME280;4111;50.972;7.072;2024-02-26T07:46:03;99425.03;;;7.18;100.00
8140;BME280;4111;50.972;7.072;2024-02-26T07:48:30;99435.28;;;7.16;100.00
8140;BME280;4111;50.972;7.072;2024-02-26T07:50:57;99442.81;;;7.14;100.00
8140;BME280;4111;50.972;7.072;2024-02-26T07:53:26;99444.72;;;7.19;100.00
8140;BME280;4111;50.972;7.072;2024-02-26T07:55:52;99455.28;;;7.20;100.00
8140;BME280;4111;50.972;7.072;2024-02-26T07:58:19;99454.16;;;7.16;100.00
8140;BME280;4111;50.972;7.072;2024-02-26T08:00:45;99447.97;;;7.15;100.00
8140;BME280;4111;50.972;7.072;2024-02-26T08:03:12;99453.06;;;7.12;100.00
8140;BME280;4111;50.972;7.072;2024-02-26T08:05:42;99450.81;;;7.04;100.00
8140;BME280;4111;50.972;7.072;2024-02-26T08:08:09;99449.63;;;6.94;100.00
8140;BME280;4111;50.972;7.072;2024-02-26T08:10:36;99456.66;;;6.95;100.00
8140;BME280;4111;50.972;7.072;2024-02-26T08:13:02;99450.44;;;6.95;100.00
8140;BME280;4111;50.972;7.072;2024-02-26T08:15:32;99449.63;;;6.94;100.00
8140;BME280;4111;50.972;7.072;2024-02-26T08:18:03;99456.16;;;6.99;100.00
8140;BME280;4111;50.972;7.072;2024-02-26T08:20:31;99456.97;;;6.99;100.00
8140;BME280;4111;50.972;7.072;2024-02-26T08:22:57;99458.38;;;7.07;100.00
8140;BME280;4111;50.972;7.072;2024-02-26T08:25:24;99456.78;;;7.06;100.00
8140;BME280;4111;50.972;7.072;2024-02-26T08:27:51;99458.84;;;6.99;100.00
8140;BME280;4111;50.972;7.072;2024-02-26T08:30:18;99462.09;;;7.01;100.00
8140;BME280;4111;50.972;7.072;2024-02-26T08:32:45;99468.38;;;7.06;100.00
8140;BME280;4111;50.972;7.072;2024-02-26T08:35:16;99471.31;;;7.05;100.00
8140;BME280;4111;50.972;7.072;2024-02-26T08:37:47;99484.25;;;7.03;100.00
8140;BME280;4111;50.972;7.072;2024-02-26T08:40:14;99482.94;;;7.05;100.00
8140;BME280;4111;50.972;7.072;2024-02-26T08:42:41;99487.03;;;7.08;100.00
8140;BME280;4111;50.972;7.072;2024-02-26T08:45:09;99487.50;;;7.05;100.00
8140;BME280;4111;50.972;7.072;2024-02-26T08:47:39;99479.72;;;7.08;100.00
8140;BME280;4111;50.972;7.072;2024-02-26T08:50:06;99491.09;;;7.10;100.00
8140;BME280;4111;50.972;7.072;2024-02-26T08:52:33;99492.16;;;7.09;100.00
8140;BME280;4111;50.972;7.072;2024-02-26T08:54:59;99504.69;;;7.21;100.00
8140;BME280;4111;50.972;7.072;2024-02-26T08:57:26;99503.31;;;7.18;100.00
8140;BME280;4111;50.972;7.072;2024-02-26T08:59:54;99507.59;;;7.14;100.00
8140;BME280;4111;50.972;7.072;2024-02-26T09:02:20;99508.69;;;7.13;100.00
8140;BME280;4111;50.972;7.072;2024-02-26T09:04:47;99508.97;;;7.17;100.00
8140;BME280;4111;50.972;7.072;2024-02-26T09:07:13;99515.53;;;7.26;100.00
8140;BME280;4111;50.972;7.072;2024-02-26T09:09:40;99516.06;;;7.23;100.00
8140;BME280;4111;50.972;7.072;2024-02-26T09:12:07;99518.06;;;7.10;100.00
8140;BME280;4111;50.972;7.072;2024-02-26T09:14:33;99518.31;;;7.09;100.00
8140;BME280;4111;50.972;7.072;2024-02-26T09:17:00;99527.19;;;7.04;100.00
8140;BME280;4111;50.972;7.072;2024-02-26T09:19:26;99529.72;;;7.11;100.00
8140;BME280;4111;50.972;7.072;2024-02-26T09:21:54;99529.75;;;7.16;100.00
8140;BME280;4111;50.972;7.072;2024-02-26T09:24:25;99537.53;;;7.12;100.00
8140;BME280;4111;50.972;7.072;2024-02-26T09:26:52;99530.81;;;7.15;100.00
8140;BME280;4111;50.972;7.072;2024-02-26T09:29:19;99539.16;;;7.13;100.00
8140;BME280;4111;50.972;7.072;2024-02-26T09:31:45;99543.25;;;7.16;100.00
8140;BME280;4111;50.972;7.072;2024-02-26T09:34:14;99552.91;;;7.12;100.00
8140;BME280;4111;50.972;7.072;2024-02-26T09:36:40;99544.81;;;7.12;100.00
8140;BME280;4111;50.972;7.072;2024-02-26T09:39:07;99547.19;;;7.08;100.00
8140;BME280;4111;50.972;7.072;2024-02-26T09:41:38;99562.91;;;7.11;100.00
8140;BME280;4111;50.972;7.072;2024-02-26T09:44:05;99558.31;;;7.12;100.00
8140;BME280;4111;50.972;7.072;2024-02-26T09:46:31;99560.75;;;7.13;100.00
8140;BME280;4111;50.972;7.072;2024-02-26T09:48:58;99563.47;;;7.13;100.00
8140;BME280;4111;50.972;7.072;2024-02-26T09:51:25;99568.00;;;7.08;100.00
8140;BME280;4111;50.972;7.072;2024-02-26T09:53:53;99569.03;;;7.07;100.00
8140;BME280;4111;50.972;7.072;2024-02-26T09:56:20;99564.72;;;7.06;100.00
8140;BME280;4111;50.972;7.072;2024-02-26T09:58:48;99574.72;;;7.05;100.00
8140;BME280;4111;50.972;7.072;2024-02-26T10:01:20;99570.59;;;7.03;100.00
8140;BME280;4111;50.972;7.072;2024-02-26T10:03:52;99579.59;;;7.08;100.00
8140;BME280;4111;50.972;7.072;2024-02-26T10:06:21;99575.84;;;7.09;100.00
8140;BME280;4111;50.972;7.072;2024-02-26T10:08:48;99582.03;;;7.10;100.00
8140;BME280;4111;50.972;7.072;2024-02-26T10:11:15;99583.25;;;7.19;100.00
8140;BME280;4111;50.972;7.072;2024-02-26T10:13:42;99583.69;;;7.11;100.00
8140;BME280;4111;50.972;7.072;2024-02-26T10:16:09;99588.88;;;7.18;100.00
8140;BME280;4111;50.972;7.072;2024-02-26T10:18:52;99592.47;;;7.23;100.00
8140;BME280;4111;50.972;7.072;2024-02-26T10:21:25;99595.91;;;7.19;100.00
8140;BME280;4111;50.972;7.072;2024-02-26T10:23:55;99598.66;;;7.24;100.00
8140;BME280;4111;50.972;7.072;2024-02-26T10:26:21;99591.91;;;7.21;100.00
8140;BME280;4111;50.972;7.072;2024-02-26T10:28:51;99603.88;;;7.30;100.00
8140;BME280;4111;50.972;7.072;2024-02-26T10:31:24;99603.88;;;7.30;100.00
8140;BME280;4111;50.972;7.072;2024-02-26T10:33:55;99598.78;;;7.34;100.00
8140;BME280;4111;50.972;7.072;2024-02-26T10:36:22;99597.47;;;7.37;100.00
8140;BME280;4111;50.972;7.072;2024-02-26T10:38:49;99596.63;;;7.36;100.00
8140;BME280;4111;50.972;7.072;2024-02-26T10:41:18;99607.75;;;7.40;100.00
8140;BME280;4111;50.972;7.072;2024-02-26T10:43:44;99608.28;;;7.37;100.00
8140;BME280;4111;50.972;7.072;2024-02-26T10:46:11;99600.75;;;7.39;100.00
8140;BME280;4111;50.972;7.072;2024-02-26T10:48:38;99615.22;;;7.54;100.00
8140;BME280;4111;50.972;7.072;2024-02-26T10:51:05;99619.50;;;7.50;100.00
8140;BME280;4111;50.972;7.072;2024-02-26T10:53:33;99616.53;;;7.52;100.00
8140;BME280;4111;50.972;7.072;2024-02-26T10:56:04;99618.09;;;7.48;100.00
8140;BME280;4111;50.972;7.072;2024-02-26T10:58:32;99622.88;;;7.63;100.00
8140;BME280;4111;50.972;7.072;2024-02-26T11:00:59;99627.56;;;7.72;100.00
8140;BME280;4111;50.972;7.072;2024-02-26T11:03:26;99628.03;;;7.64;100.00
8140;BME280;4111;50.972;7.072;2024-02-26T11:05:55;99631.22;;;7.61;100.00
8140;BME280;4111;50.972;7.072;2024-02-26T11:08:23;99629.56;;;7.60;100.00
8140;BME280;4111;50.972;7.072;2024-02-26T11:10:53;99635.59;;;7.67;100.00
8140;BME280;4111;50.972;7.072;2024-02-26T11:13:21;99631.56;;;7.70;100.00
8140;BME280;4111;50.972;7.072;2024-02-26T11:15:48;99641.31;;;7.71;100.00
8140;BME280;4111;50.972;7.072;2024-02-26T11:18:15;99648.06;;;7.68;100.00
8140;BME280;4111;50.972;7.072;2024-02-26T11:20:44;99637.53;;;7.72;100.00
8140;BME280;4111;50.972;7.072;2024-02-26T11:23:11;99647.78;;;7.70;100.00
8140;BME280;4111;50.972;7.072;2024-02-26T11:25:38;99649.66;;;7.69;100.00
8140;BME280;4111;50.972;7.072;2024-02-26T11:28:10;99644.88;;;7.77;100.00
8140;BME280;4111;50.972;7.072;2024-02-26T11:30:43;99651.66;;;7.79;100.00
8140;BME280;4111;50.972;7.072;2024-02-26T11:33:11;99659.41;;;7.70;100.00
8140;BME280;4111;50.972;7.072;2024-02-26T11:35:39;99654.06;;;7.75;100.00
8140;BME280;4111;50.972;7.072;2024-02-26T11:38:06;99664.38;;;7.79;100.00
8140;BME280;4111;50.972;7.072;2024-02-26T11:40:38;99660.56;;;7.80;100.00
8140;BME280;4111;50.972;7.072;2024-02-26T11:43:08;99667.16;;;7.89;100.00
8140;BME280;4111;50.972;7.072;2024-02-26T11:48:12;99671.59;;;8.00;100.00
8140;BME280;4111;50.972;7.072;2024-02-26T11:50:50;99670.59;;;8.06;100.00
8140;BME280;4111;50.972;7.072;2024-02-26T11:53:28;99670.59;;;8.06;100.00
8140;BME280;4111;50.972;7.072;2024-02-26T11:56:19;99677.66;;;8.12;100.00
8140;BME280;4111;50.972;7.072;2024-02-26T11:58:46;99672.03;;;8.19;100.00
8140;BME280;4111;50.972;7.072;2024-02-26T12:04:07;99682.50;;;8.10;100.00
8140;BME280;4111;50.972;7.072;2024-02-26T12:07:00;99678.22;;;8.14;100.00
8140;BME280;4111;50.972;7.072;2024-02-26T12:09:41;99684.75;;;8.19;100.00
8140;BME280;4111;50.972;7.072;2024-02-26T12:12:17;99685.88;;;8.23;100.00
8140;BME280;4111;50.972;7.072;2024-02-26T12:14:52;99675.03;;;8.23;100.00
8140;BME280;4111;50.972;7.072;2024-02-26T12:17:20;99680.84;;;8.37;100.00
8140;BME280;4111;50.972;7.072;2024-02-26T12:19:47;99679.50;;;8.39;100.00
8140;BME280;4111;50.972;7.072;2024-02-26T12:22:14;99688.50;;;8.45;100.00
8140;BME280;4111;50.972;7.072;2024-02-26T12:24:44;99685.56;;;8.46;100.00
8140;BME280;4111;50.972;7.072;2024-02-26T12:27:11;99700.88;;;8.41;100.00
8140;BME280;4111;50.972;7.072;2024-02-26T12:29:39;99704.19;;;8.43;100.00
8140;BME280;4111;50.972;7.072;2024-02-26T12:32:09;99702.16;;;8.33;100.00
8140;BME280;4111;50.972;7.072;2024-02-26T12:34:37;99711.97;;;8.39;100.00
8140;BME280;4111;50.972;7.072;2024-02-26T12:37:03;99711.53;;;8.47;100.00
8140;BME280;4111;50.972;7.072;2024-02-26T12:39:30;99729.13;;;8.50;100.00
8140;BME280;4111;50.972;7.072;2024-02-26T12:41:58;99724.66;;;8.39;100.00
8140;BME280;4111;50.972;7.072;2024-02-26T12:44:26;99728.81;;;8.41;100.00
8140;BME280;4111;50.972;7.072;2024-02-26T12:47:03;99734.69;;;8.38;100.00
8140;BME280;4111;50.972;7.072;2024-02-26T12:49:30;99739.63;;;8.41;100.00
8140;BME280;4111;50.972;7.072;2024-02-26T12:51:58;99746.19;;;8.50;100.00
8140;BME280;4111;50.972;7.072;2024-02-26T12:54:29;99742.91;;;8.48;100.00
8140;BME280;4111;50.972;7.072;2024-02-26T12:57:00;99738.03;;;8.45;100.00
8140;BME280;4111;50.972;7.072;2024-02-26T12:59:29;99746.16;;;8.45;100.00
8140;BME280;4111;50.972;7.072;2024-02-26T13:01:56;99757.78;;;8.46;100.00
8140;BME280;4111;50.972;7.072;2024-02-26T13:04:23;99749.97;;;8.49;100.00
8140;BME280;4111;50.972;7.072;2024-02-26T13:06:50;99761.13;;;8.58;100.00
8140;BME280;4111;50.972;7.072;2024-02-26T13:09:17;99758.78;;;8.67;100.00
8140;BME280;4111;50.972;7.072;2024-02-26T13:11:45;99769.63;;;8.72;100.00
8140;BME280;4111;50.972;7.072;2024-02-26T13:14:21;99764.84;;;8.84;100.00
8140;BME280;4111;50.972;7.072;2024-02-26T13:16:57;99768.28;;;8.74;100.00
8140;BME280;4111;50.972;7.072;2024-02-26T13:19:24;99768.91;;;8.82;100.00
8140;BME280;4111;50.972;7.072;2024-02-26T13:21:51;99779.97;;;8.75;100.00
8140;BME280;4111;50.972;7.072;2024-02-26T13:24:19;99778.84;;;8.71;100.00
8140;BME280;4111;50.972;7.072;2024-02-26T13:26:46;99783.69;;;8.69;100.00
8140;BME280;4111;50.972;7.072;2024-02-26T13:29:19;99779.19;;;8.80;100.00
8140;BME280;4111;50.972;7.072;2024-02-26T13:31:46;99788.41;;;8.84;100.00